Time;durP1;ratioP1;P1;durP2;ratioP2;P2;SDS_P1;SDS_P2;PMS_P1;PMS_P2;Temp;Humidity;BMP_temperature;BMP_pressure;BME280_temperature;BME280_humidity;BME280_pressure;Samples;Min_cycle;Max_cycle;Signal;HPM_P1;HPM_P2
2022/10/22 00:00:12;;;;;;;14.30;4.77;;;-19.20;99.90;;;;;;5024859;28;20251;-78
2022/10/22 00:02:37;;;;;;;6.13;2.87;;;-19.40;99.90;;;;;;5029165;28;20283;-75
2022/10/22 00:05:03;;;;;;;15.87;4.77;;;-17.90;99.90;;;;;;5024621;28;20264;-77
2022/10/22 00:07:29;;;;;;;10.93;5.07;;;-17.80;99.90;;;;;;5035041;28;20188;-78
2022/10/22 00:09:55;;;;;;;11.03;3.87;;;-18.10;99.90;;;;;;5043290;28;20189;-71
2022/10/22 00:12:21;;;;;;;9.87;4.00;;;-20.00;99.90;;;;;;5028769;28;20193;-75
2022/10/22 00:14:47;;;;;;;21.50;5.03;;;-20.00;99.90;;;;;;5028288;28;20585;-72
2022/10/22 00:17:13;;;;;;;13.23;4.00;;;-22.00;99.90;;;;;;5026934;28;20188;-73
2022/10/22 00:19:39;;;;;;;15.13;4.73;;;-23.80;99.90;;;;;;5041071;28;20220;-69
2022/10/22 00:22:06;;;;;;;11.53;3.63;;;-22.30;99.90;;;;;;5034933;28;20183;-72
2022/10/22 00:24:33;;;;;;;12.77;3.60;;;-17.40;99.90;;;;;;5033653;28;20180;-75
2022/10/22 00:26:58;;;;;;;5.20;2.87;;;-16.80;99.90;;;;;;5030082;28;20188;-70
2022/10/22 00:29:24;;;;;;;7.80;3.03;;;-16.60;99.90;;;;;;5026428;28;20267;-70
2022/10/22 00:31:50;;;;;;;12.90;4.50;;;-17.60;99.90;;;;;;5020304;28;20191;-70
2022/10/22 00:34:18;;;;;;;11.13;4.27;;;-16.90;99.90;;;;;;5033137;28;20197;-72
2022/10/22 00:36:45;;;;;;;9.30;4.17;;;-18.10;99.90;;;;;;5031923;28;20254;-78
2022/10/22 00:39:12;;;;;;;9.80;3.50;;;-18.30;99.90;;;;;;5038188;28;20536;-76
2022/10/22 00:41:38;;;;;;;29.90;5.43;;;-16.70;99.90;;;;;;5034307;28;20526;-69
2022/10/22 00:44:05;;;;;;;15.17;4.40;;;-17.90;99.90;;;;;;5049985;28;20231;-78
2022/10/22 00:46:31;;;;;;;9.63;3.10;;;-19.40;99.90;;;;;;5036383;28;20200;-78
2022/10/22 00:49:01;;;;;;;18.87;4.63;;;-19.40;99.90;;;;;;5025042;28;20181;-76
2022/10/22 00:51:34;;;;;;;8.43;3.43;;;-20.30;99.90;;;;;;5038015;28;20185;-77
2022/10/22 00:54:04;;;;;;;8.77;3.70;;;-18.00;99.90;;;;;;5037986;28;20260;-78
2022/10/22 00:56:30;;;;;;;9.67;3.67;;;-18.40;99.90;;;;;;5032711;28;20187;-78
2022/10/22 00:58:59;;;;;;;5.30;3.67;;;-20.90;99.90;;;;;;5027102;28;20205;-75
2022/10/22 01:01:30;;;;;;;6.23;3.70;;;-16.90;99.90;;;;;;5037759;28;20211;-78
2022/10/22 01:03:56;;;;;;;7.37;3.83;;;-19.80;99.90;;;;;;5034890;28;20189;-79
2022/10/22 01:06:29;;;;;;;12.73;4.20;;;-19.10;99.90;;;;;;5023801;28;20185;-79
2022/10/22 01:09:39;;;;;;;6.77;3.77;;;-21.50;99.90;;;;;;5031380;28;20180;-78
2022/10/22 01:12:36;;;;;;;13.00;4.10;;;-21.90;99.90;;;;;;5019873;28;20200;-75
2022/10/22 01:15:16;;;;;;;12.73;3.73;;;-22.20;99.90;;;;;;5033691;28;20184;-77
2022/10/22 01:17:56;;;;;;;7.53;3.80;;;-17.90;99.90;;;;;;5037425;28;20183;-77
2022/10/22 01:20:40;;;;;;;11.40;4.13;;;-18.20;99.90;;;;;;5046783;28;20485;-80
2022/10/22 01:23:05;;;;;;;8.47;3.60;;;-17.50;99.90;;;;;;5027998;28;20261;-76
2022/10/22 01:25:37;;;;;;;10.83;4.17;;;-16.90;99.90;;;;;;5032625;28;20264;-75
2022/10/22 01:28:11;;;;;;;6.97;3.67;;;-19.10;99.90;;;;;;5029568;28;20580;-76
2022/10/22 01:30:39;;;;;;;18.60;3.83;;;-17.70;99.90;;;;;;5033225;28;20545;-79
2022/10/22 01:33:08;;;;;;;7.10;3.67;;;-18.60;99.90;;;;;;5037447;28;20585;-76
2022/10/22 01:35:38;;;;;;;6.70;3.60;;;-18.00;99.90;;;;;;5037482;28;20177;-76
2022/10/22 01:38:08;;;;;;;13.73;4.43;;;-21.20;99.90;;;;;;5036956;28;20183;-76
2022/10/22 01:40:35;;;;;;;11.03;4.13;;;-17.60;99.90;;;;;;5037308;28;20208;-78
2022/10/22 01:43:04;;;;;;;13.47;3.67;;;-20.70;99.90;;;;;;5036631;28;20622;-77
2022/10/22 01:45:37;;;;;;;6.20;3.53;;;-18.80;99.90;;;;;;5030606;28;20259;-70
2022/10/22 01:48:28;;;;;;;9.50;4.43;;;-19.80;99.90;;;;;;5026267;28;20492;-69
2022/10/22 01:51:02;;;;;;;8.83;3.20;;;-19.00;99.90;;;;;;5027219;28;20192;-69
2022/10/22 01:54:06;;;;;;;8.63;4.37;;;-20.20;99.90;;;;;;5027624;28;20176;-70
2022/10/22 01:56:56;;;;;;;5.20;3.17;;;-18.50;99.90;;;;;;5035333;28;20615;-70
2022/10/22 01:59:53;;;;;;;9.83;3.90;;;-20.80;99.90;;;;;;5046831;28;20585;-69
2022/10/22 02:02:25;;;;;;;11.90;3.77;;;-19.20;99.90;;;;;;5028429;28;20209;-70
2022/10/22 02:05:03;;;;;;;9.47;3.03;;;-16.50;99.90;;;;;;5032442;28;20181;-70
2022/10/22 02:07:40;;;;;;;7.97;4.23;;;-19.60;99.90;;;;;;5027012;28;20231;-72
2022/10/22 02:10:08;;;;;;;5.47;3.20;;;-18.10;99.90;;;;;;5031643;28;20184;-72
2022/10/22 02:12:34;;;;;;;5.30;3.23;;;-18.90;99.90;;;;;;5036650;28;20583;-76
2022/10/22 02:15:01;;;;;;;9.77;3.53;;;-19.80;99.90;;;;;;5033299;28;20180;-79
2022/10/22 02:17:32;;;;;;;7.23;3.00;;;-20.90;99.90;;;;;;5030931;28;20185;-74
2022/10/22 02:20:02;;;;;;;10.83;3.97;;;-23.30;99.90;;;;;;5018149;28;20201;-76
2022/10/22 02:22:29;;;;;;;8.93;3.17;;;-19.90;99.90;;;;;;5027756;28;20191;-75
2022/10/22 02:24:55;;;;;;;7.57;3.17;;;-16.30;99.90;;;;;;5020733;28;20604;-76
2022/10/22 02:27:27;;;;;;;6.87;2.93;;;-15.50;99.90;;;;;;5036447;28;20177;-70
2022/10/22 02:30:08;;;;;;;14.50;3.97;;;-18.30;99.90;;;;;;5032289;28;20264;-70
2022/10/22 02:33:02;;;;;;;11.83;3.47;;;-20.80;99.90;;;;;;5035883;28;20219;-70
2022/10/22 02:35:29;;;;;;;9.43;3.03;;;-24.50;99.90;;;;;;5026570;28;20197;-69
2022/10/22 02:37:57;;;;;;;16.33;3.13;;;-21.00;99.90;;;;;;5035166;28;20184;-69
2022/10/22 02:40:23;;;;;;;9.03;3.00;;;-17.60;99.90;;;;;;5051703;28;20208;-70
2022/10/22 02:42:50;;;;;;;9.30;2.70;;;-19.40;99.90;;;;;;5045248;28;20193;-69
2022/10/22 02:45:18;;;;;;;9.90;2.60;;;-15.90;99.90;;;;;;5025360;28;20208;-70
2022/10/22 02:47:44;;;;;;;8.90;2.97;;;-17.80;99.90;;;;;;5028597;28;20193;-70
2022/10/22 02:50:10;;;;;;;10.47;3.87;;;-17.60;99.90;;;;;;5023294;28;20198;-71
2022/10/22 02:52:35;;;;;;;13.23;3.97;;;-17.90;99.90;;;;;;5021225;28;20281;-70
2022/10/22 02:55:01;;;;;;;6.20;2.70;;;-20.70;99.90;;;;;;5032739;28;20188;-69
2022/10/22 02:57:27;;;;;;;8.23;3.20;;;-18.70;99.90;;;;;;5031590;28;20184;-77
2022/10/22 02:59:53;;;;;;;6.67;2.67;;;-16.40;99.90;;;;;;5035811;28;20254;-74
2022/10/22 03:02:19;;;;;;;5.63;3.23;;;-16.50;99.90;;;;;;5031341;28;20225;-71
2022/10/22 03:04:44;;;;;;;14.07;3.27;;;-18.40;99.90;;;;;;5029584;28;20189;-76
2022/10/22 03:07:10;;;;;;;9.17;2.73;;;-18.50;99.90;;;;;;5035032;28;20211;-77
2022/10/22 03:09:36;;;;;;;14.10;2.80;;;-19.80;99.90;;;;;;5029886;28;20242;-75
2022/10/22 03:12:02;;;;;;;3.93;2.27;;;-20.60;99.90;;;;;;5029304;28;20275;-70
2022/10/22 03:14:27;;;;;;;5.30;2.33;;;-20.00;99.90;;;;;;5030789;28;20227;-72
2022/10/22 03:16:53;;;;;;;8.60;3.10;;;-22.50;99.90;;;;;;5035860;28;20193;-70
2022/10/22 03:19:19;;;;;;;14.57;2.93;;;-21.00;99.90;;;;;;5035302;28;20208;-70
2022/10/22 03:21:49;;;;;;;9.27;3.23;;;-24.00;99.90;;;;;;5035183;28;20185;-70
2022/10/22 03:24:20;;;;;;;8.57;2.80;;;-23.00;99.90;;;;;;5028143;28;20202;-74
2022/10/22 03:26:47;;;;;;;7.33;2.83;;;-19.70;99.90;;;;;;5035559;28;20223;-74
2022/10/22 03:29:14;;;;;;;12.20;3.63;;;-18.60;99.90;;;;;;5027151;28;20232;-78
2022/10/22 03:31:40;;;;;;;8.10;2.50;;;-18.50;99.90;;;;;;5023890;28;20186;-79
2022/10/22 03:34:05;;;;;;;13.33;3.07;;;-19.10;99.90;;;;;;5038072;28;20228;-75
2022/10/22 03:36:32;;;;;;;11.77;2.70;;;-18.40;99.90;;;;;;5043607;28;20188;-78
2022/10/22 03:39:00;;;;;;;7.93;2.20;;;-16.90;99.90;;;;;;5025268;28;20688;-76
2022/10/22 03:41:26;;;;;;;7.33;1.90;;;-17.40;99.90;;;;;;5035477;28;20260;-70
2022/10/22 03:43:53;;;;;;;8.93;2.47;;;-16.50;99.90;;;;;;5050871;28;20177;-74
2022/10/22 03:46:19;;;;;;;8.70;2.40;;;-17.40;99.90;;;;;;5026278;28;20180;-69
2022/10/22 03:48:45;;;;;;;9.23;2.80;;;-21.50;99.90;;;;;;5029187;28;20314;-69
2022/10/22 03:51:10;;;;;;;5.90;2.53;;;-21.40;99.90;;;;;;5028261;28;20279;-72
2022/10/22 03:53:36;;;;;;;11.37;2.50;;;-20.30;99.90;;;;;;5025155;28;20272;-73
2022/10/22 03:56:06;;;;;;;6.37;2.50;;;-21.60;99.90;;;;;;5029637;28;20226;-72
2022/10/22 03:58:32;;;;;;;10.90;2.80;;;-21.90;99.90;;;;;;5050636;28;20219;-77
2022/10/22 04:01:04;;;;;;;6.57;2.17;;;-18.80;99.90;;;;;;5029596;28;20212;-72
2022/10/22 04:03:30;;;;;;;7.13;2.67;;;-18.70;99.90;;;;;;5013787;28;20271;-74
2022/10/22 04:06:04;;;;;;;9.30;2.33;;;-18.30;99.90;;;;;;5016629;28;20208;-77
2022/10/22 04:08:30;;;;;;;6.77;2.70;;;-20.20;99.90;;;;;;5033131;28;20176;-77
2022/10/22 04:10:56;;;;;;;8.30;1.43;;;-20.30;99.90;;;;;;5032133;28;20267;-70
2022/10/22 04:13:21;;;;;;;5.47;3.00;;;-20.20;99.90;;;;;;5039101;28;20191;-73
2022/10/22 04:15:47;;;;;;;8.67;2.63;;;-17.90;99.90;;;;;;5037949;28;20187;-77
2022/10/22 04:18:13;;;;;;;6.30;2.30;;;-19.80;99.90;;;;;;5032229;28;20193;-78
2022/10/22 04:20:40;;;;;;;5.13;2.70;;;-18.80;99.90;;;;;;5054186;28;20306;-78
2022/10/22 04:23:06;;;;;;;6.13;2.97;;;-19.30;99.90;;;;;;5046904;28;20893;-73
2022/10/22 04:25:32;;;;;;;6.10;2.03;;;-22.10;99.90;;;;;;5044445;28;20184;-76
2022/10/22 04:27:57;;;;;;;6.90;2.30;;;-20.00;99.90;;;;;;5038803;28;20189;-78
2022/10/22 04:30:23;;;;;;;9.30;1.77;;;-18.40;99.90;;;;;;5037749;28;20199;-72
2022/10/22 04:32:49;;;;;;;4.60;2.30;;;-16.30;99.90;;;;;;5034612;28;20507;-70
2022/10/22 04:35:14;;;;;;;11.30;2.87;;;-14.80;99.90;;;;;;5026802;28;20242;-79
2022/10/22 04:37:40;;;;;;;8.47;2.57;;;-20.30;99.90;;;;;;5035325;28;20192;-78
2022/10/22 04:40:07;;;;;;;7.53;1.90;;;-18.70;99.90;;;;;;5042896;28;20213;-69
2022/10/22 04:42:32;;;;;;;13.60;2.77;;;-20.20;99.90;;;;;;5027936;28;20185;-73
2022/10/22 04:44:58;;;;;;;15.90;2.90;;;-18.00;99.90;;;;;;5032629;28;20458;-77
2022/10/22 04:47:24;;;;;;;9.10;2.43;;;-17.30;99.90;;;;;;5049239;28;20215;-76
2022/10/22 04:49:49;;;;;;;5.87;2.00;;;-16.40;99.90;;;;;;5038476;28;20272;-72
2022/10/22 04:52:15;;;;;;;9.20;2.17;;;-17.20;99.90;;;;;;5030911;28;20223;-78
2022/10/22 04:54:41;;;;;;;4.70;2.03;;;-17.50;99.90;;;;;;5038270;28;20215;-74
2022/10/22 04:57:07;;;;;;;5.67;2.70;;;-22.60;99.90;;;;;;5033682;28;20188;-78
2022/10/22 04:59:32;;;;;;;11.53;2.17;;;-22.50;99.90;;;;;;5030946;28;20204;-78
2022/10/22 05:01:58;;;;;;;4.33;1.83;;;-20.70;99.90;;;;;;5033899;28;20216;-79
2022/10/22 05:04:24;;;;;;;10.03;2.43;;;-22.50;99.90;;;;;;5032592;28;20188;-77
2022/10/22 05:06:50;;;;;;;11.47;2.53;;;-20.20;99.90;;;;;;5037902;28;20192;-74
2022/10/22 05:09:18;;;;;;;6.53;1.93;;;-18.90;99.90;;;;;;5037884;28;20219;-76
2022/10/22 05:11:47;;;;;;;10.90;3.00;;;-21.30;99.90;;;;;;5038167;28;20194;-79
2022/10/22 05:14:24;;;;;;;13.43;3.07;;;-22.30;99.90;;;;;;5037988;28;20607;-80
2022/10/22 05:16:51;;;;;;;19.77;2.87;;;-19.60;99.90;;;;;;5019700;28;20184;-76
2022/10/22 05:19:23;;;;;;;12.20;2.27;;;-19.90;99.90;;;;;;5019093;28;20216;-79
2022/10/22 05:21:49;;;;;;;9.07;2.07;;;-19.10;99.90;;;;;;5026636;28;20177;-75
2022/10/22 05:24:15;;;;;;;3.43;1.40;;;-18.50;99.90;;;;;;5026029;28;20181;-76
2022/10/22 05:26:41;;;;;;;9.90;2.40;;;-23.00;99.90;;;;;;5031466;28;20600;-78
2022/10/22 05:29:07;;;;;;;11.17;2.20;;;-22.20;99.90;;;;;;5031781;28;20181;-78
2022/10/22 05:31:33;;;;;;;2.77;1.90;;;-19.40;99.90;;;;;;5030537;28;20263;-78
2022/10/22 05:33:59;;;;;;;3.90;1.60;;;-18.00;99.90;;;;;;5037566;28;20251;-75
2022/10/22 05:36:24;;;;;;;4.00;1.97;;;-18.10;99.90;;;;;;5046327;28;20530;-76
2022/10/22 05:38:50;;;;;;;16.43;2.43;;;-15.20;99.90;;;;;;5044968;28;20609;-79
2022/10/22 05:41:19;;;;;;;5.70;1.87;;;-18.50;99.90;;;;;;5029925;28;20180;-75
2022/10/22 05:43:45;;;;;;;26.33;2.90;;;-19.30;99.90;;;;;;5032606;28;20192;-77
2022/10/22 05:46:13;;;;;;;7.80;2.60;;;-17.50;99.90;;;;;;5032781;28;20189;-76
2022/10/22 05:48:39;;;;;;;7.03;2.03;;;-15.50;99.90;;;;;;5037250;28;20192;-75
2022/10/22 05:51:08;;;;;;;11.30;2.43;;;-14.50;99.90;;;;;;5037100;28;20173;-78
2022/10/22 05:53:36;;;;;;;1.93;1.73;;;-13.10;99.90;;;;;;5030677;28;20642;-75
2022/10/22 05:56:05;;;;;;;7.13;2.37;;;-18.70;99.90;;;;;;5030723;28;20261;-73
2022/10/22 05:58:32;;;;;;;8.67;2.93;;;-14.00;99.90;;;;;;5021907;28;20177;-73
2022/10/22 06:01:05;;;;;;;6.70;1.50;;;-15.20;99.90;;;;;;5030089;28;20220;-74
2022/10/22 06:03:31;;;;;;;6.73;1.87;;;-16.30;99.90;;;;;;5019066;28;20197;-74
2022/10/22 06:06:43;;;;;;;4.23;2.30;;;-19.90;99.90;;;;;;5018878;28;20181;-76
2022/10/22 06:09:23;;;;;;;7.83;1.97;;;-13.30;99.90;;;;;;5029123;28;20271;-79
2022/10/22 06:11:49;;;;;;;4.47;2.10;;;-13.30;99.90;;;;;;5018700;28;20596;-74
2022/10/22 06:14:16;;;;;;;7.77;1.60;;;-13.20;99.90;;;;;;5023667;28;20180;-77
2022/10/22 06:16:42;;;;;;;5.97;2.27;;;-13.00;99.90;;;;;;5031241;28;20230;-78
2022/10/22 06:19:12;;;;;;;6.80;2.37;;;-11.80;99.90;;;;;;5036659;28;20501;-76
2022/10/22 06:21:38;;;;;;;11.23;3.27;;;-12.40;99.90;;;;;;5032812;28;20173;-78
2022/10/22 06:24:04;;;;;;;6.50;1.67;;;-11.50;99.90;;;;;;5029155;28;20216;-78
2022/10/22 06:26:30;;;;;;;9.53;2.73;;;-11.90;99.90;;;;;;5030529;28;20268;-76
2022/10/22 06:28:56;;;;;;;7.10;2.50;;;-18.50;99.90;;;;;;5028062;28;20745;-78
2022/10/22 06:31:24;;;;;;;14.53;2.83;;;-17.10;99.90;;;;;;5025336;28;20205;-76
2022/10/22 06:33:50;;;;;;;11.47;2.27;;;-21.00;99.90;;;;;;5029052;28;20228;-77
2022/10/22 06:36:21;;;;;;;4.20;1.70;;;-16.00;99.90;;;;;;5030061;28;20283;-78
2022/10/22 06:38:50;;;;;;;4.97;2.00;;;-17.00;99.90;;;;;;5035800;28;20201;-77
2022/10/22 06:41:15;;;;;;;5.53;1.80;;;-15.70;99.90;;;;;;5035361;28;20180;-75
2022/10/22 06:43:46;;;;;;;4.40;2.10;;;-17.00;99.90;;;;;;5031045;28;20457;-74
2022/10/22 06:46:14;;;;;;;8.53;2.70;;;-16.80;99.90;;;;;;5029650;28;20275;-77
2022/10/22 06:48:40;;;;;;;2.30;1.70;;;-17.10;99.90;;;;;;5031861;28;20181;-77
2022/10/22 06:51:08;;;;;;;5.80;2.00;;;-16.40;99.90;;;;;;5031693;28;20173;-77
2022/10/22 06:53:35;;;;;;;6.40;2.23;;;-19.10;99.90;;;;;;5034170;28;20207;-77
2022/10/22 06:56:06;;;;;;;11.10;3.07;;;-16.70;99.90;;;;;;5040891;28;20188;-78
2022/10/22 06:58:32;;;;;;;15.07;2.83;;;-16.70;99.90;;;;;;5030406;28;20185;-79
2022/10/22 07:01:29;;;;;;;7.80;2.27;;;-17.40;99.90;;;;;;5044838;28;20216;-77
2022/10/22 07:03:55;;;;;;;6.23;1.80;;;-18.00;99.90;;;;;;5035011;28;20331;-83
2022/10/22 07:06:22;;;;;;;6.20;1.83;;;-16.10;99.90;;;;;;5037428;28;20180;-82
2022/10/22 07:08:49;;;;;;;6.73;2.10;;;-14.70;99.90;;;;;;5029403;28;20239;-78
2022/10/22 07:11:18;;;;;;;7.13;2.07;;;-16.80;99.90;;;;;;5035492;28;20513;-79
2022/10/22 07:13:45;;;;;;;6.53;1.53;;;-15.30;99.90;;;;;;5026944;28;20176;-78
2022/10/22 07:16:11;;;;;;;5.53;1.90;;;-17.70;99.90;;;;;;5029753;28;20187;-80
2022/10/22 07:18:38;;;;;;;9.73;2.63;;;-13.90;99.90;;;;;;5024770;28;20554;-76
2022/10/22 07:21:05;;;;;;;6.07;2.40;;;-15.70;99.90;;;;;;5025041;28;20580;-78
2022/10/22 07:23:31;;;;;;;5.53;2.07;;;-13.70;99.90;;;;;;5023670;28;20581;-82
2022/10/22 07:25:58;;;;;;;3.43;1.70;;;-13.50;99.90;;;;;;5035374;28;20595;-77
2022/10/22 07:28:24;;;;;;;6.97;2.03;;;-14.60;99.90;;;;;;5033689;28;20192;-79
2022/10/22 07:30:50;;;;;;;6.23;1.77;;;-13.60;99.90;;;;;;5033246;28;20473;-78
2022/10/22 07:33:15;;;;;;;4.23;1.90;;;-17.30;99.90;;;;;;5027325;28;20202;-76
2022/10/22 07:35:41;;;;;;;4.17;1.73;;;-16.60;99.90;;;;;;5017079;28;20189;-69
2022/10/22 07:38:07;;;;;;;7.33;2.10;;;-15.30;99.90;;;;;;5018174;28;20498;-78
2022/10/22 07:40:34;;;;;;;5.17;2.40;;;-17.30;99.90;;;;;;5026118;28;20219;-78
2022/10/22 07:43:00;;;;;;;3.13;1.43;;;-18.30;99.90;;;;;;5038800;28;20177;-76
2022/10/22 07:45:25;;;;;;;4.43;1.63;;;-16.90;99.90;;;;;;5027762;28;20455;-77
2022/10/22 07:47:51;;;;;;;9.73;2.27;;;-14.00;99.90;;;;;;5034850;28;20188;-75
2022/10/22 07:50:17;;;;;;;10.87;2.90;;;-14.90;99.90;;;;;;5039471;28;20192;-79
2022/10/22 07:52:43;;;;;;;4.47;1.73;;;-14.60;99.90;;;;;;5035310;28;20196;-75
2022/10/22 07:55:09;;;;;;;15.33;2.40;;;-18.20;99.90;;;;;;5030086;28;20186;-74
2022/10/22 07:57:38;;;;;;;5.33;2.67;;;-14.90;99.90;;;;;;5021166;28;20472;-77
2022/10/22 08:00:05;;;;;;;13.10;2.60;;;-14.60;99.90;;;;;;5026565;28;20252;-79
2022/10/22 08:02:31;;;;;;;6.87;2.20;;;-13.50;99.90;;;;;;5030806;28;20224;-72
2022/10/22 08:04:58;;;;;;;1.73;1.40;;;-16.80;99.90;;;;;;5034965;28;20188;-74
2022/10/22 08:07:24;;;;;;;5.27;2.07;;;-20.80;99.90;;;;;;5032684;28;20580;-74
2022/10/22 08:09:49;;;;;;;9.53;2.27;;;-16.00;99.90;;;;;;5031415;28;20214;-76
2022/10/22 08:12:15;;;;;;;7.10;1.60;;;-16.40;99.90;;;;;;5038721;28;20189;-70
2022/10/22 08:14:41;;;;;;;6.17;1.83;;;-17.30;99.90;;;;;;5031085;28;20203;-71
2022/10/22 08:17:07;;;;;;;5.80;2.00;;;-16.80;99.90;;;;;;5034298;28;20189;-75
2022/10/22 08:19:34;;;;;;;8.10;2.07;;;-15.10;99.90;;;;;;5036150;28;20235;-71
2022/10/22 08:22:00;;;;;;;5.47;1.60;;;-16.90;99.90;;;;;;5032142;28;20224;-74
2022/10/22 08:24:26;;;;;;;6.47;1.73;;;-15.30;99.90;;;;;;5032244;28;20310;-72
2022/10/22 08:26:54;;;;;;;2.97;1.50;;;-14.40;99.90;;;;;;5035297;28;20241;-78
2022/10/22 08:29:24;;;;;;;5.17;1.93;;;-16.20;99.90;;;;;;5054143;28;20192;-77
2022/10/22 08:31:50;;;;;;;4.57;1.53;;;-22.20;99.90;;;;;;5038542;28;20634;-72
2022/10/22 08:34:16;;;;;;;2.80;1.50;;;-14.70;99.90;;;;;;5038527;28;20193;-77
2022/10/22 08:36:42;;;;;;;9.80;2.10;;;-20.80;99.90;;;;;;5040828;28;20222;-73
2022/10/22 08:39:08;;;;;;;5.30;2.13;;;-16.90;99.90;;;;;;5033709;28;20196;-74
2022/10/22 08:41:56;;;;;;;5.73;2.53;;;-11.60;99.90;;;;;;5032852;28;20196;-76
2022/10/22 08:44:29;;;;;;;6.37;1.40;;;-13.20;99.90;;;;;;5022564;28;20204;-69
2022/10/22 08:47:19;;;;;;;11.47;2.33;;;-15.90;99.90;;;;;;5031853;28;20180;-73
2022/10/22 08:49:45;;;;;;;6.27;2.20;;;-11.50;99.90;;;;;;5031420;28;20177;-74
2022/10/22 08:52:17;;;;;;;14.23;2.40;;;-14.30;99.90;;;;;;5037562;28;20192;-78
2022/10/22 08:54:54;;;;;;;3.73;1.33;;;-13.10;99.90;;;;;;5027062;28;20658;-77
2022/10/22 08:57:33;;;;;;;11.83;1.70;;;-12.80;99.90;;;;;;5024393;28;20280;-74
2022/10/22 09:00:10;;;;;;;7.10;2.57;;;-12.00;99.90;;;;;;5025529;28;20753;-75
2022/10/22 09:02:45;;;;;;;8.00;2.33;;;-10.60;99.90;;;;;;5023019;28;20231;-75
2022/10/22 09:05:26;;;;;;;12.53;1.87;;;-13.90;99.90;;;;;;5034352;28;20583;-72
2022/10/22 09:07:54;;;;;;;8.67;2.87;;;-11.80;99.90;;;;;;5033773;28;20181;-76
2022/10/22 09:10:26;;;;;;;8.57;1.87;;;-12.10;99.90;;;;;;5032872;28;20242;-78
2022/10/22 09:12:51;;;;;;;6.33;2.33;;;-11.50;99.90;;;;;;5019422;28;20395;-75
2022/10/22 09:15:19;;;;;;;6.57;2.43;;;-15.60;99.90;;;;;;5030907;28;20279;-77
2022/10/22 09:17:55;;;;;;;8.23;2.13;;;-24.40;99.90;;;;;;5033516;28;20536;-74
2022/10/22 09:20:37;;;;;;;5.27;2.13;;;-19.70;99.90;;;;;;5037389;28;20208;-78
2022/10/22 09:23:21;;;;;;;6.90;2.03;;;-16.80;99.90;;;;;;5033131;28;20169;-72
2022/10/22 09:25:50;;;;;;;3.70;2.00;;;-23.50;99.90;;;;;;5030696;28;20204;-69
2022/10/22 09:28:16;;;;;;;7.00;2.40;;;-18.00;99.90;;;;;;5035240;28;20330;-73
2022/10/22 09:30:42;;;;;;;3.93;1.30;;;-16.80;99.90;;;;;;5030601;28;20204;-73
2022/10/22 09:33:22;;;;;;;5.07;1.60;;;-17.10;99.90;;;;;;5030769;28;20241;-71
2022/10/22 09:35:51;;;;;;;6.87;1.97;;;-17.80;99.90;;;;;;5036231;28;20488;-70
2022/10/22 09:38:21;;;;;;;3.90;1.40;;;-16.50;99.90;;;;;;5052576;28;20192;-75
2022/10/22 09:40:54;;;;;;;3.17;1.33;;;-13.50;99.90;;;;;;5029666;28;20478;-76
2022/10/22 09:43:19;;;;;;;9.57;1.93;;;-20.70;99.90;;;;;;5035339;28;20195;-75
2022/10/22 09:45:47;;;;;;;7.43;2.50;;;-18.00;99.90;;;;;;5030690;28;20185;-77
2022/10/22 09:48:18;;;;;;;3.67;1.80;;;-19.90;99.90;;;;;;5024680;28;20236;-74
2022/10/22 09:50:47;;;;;;;6.07;2.33;;;-20.60;99.90;;;;;;5041759;28;20589;-80
2022/10/22 09:53:17;;;;;;;6.03;2.07;;;-14.30;99.90;;;;;;5033532;28;20187;-77
2022/10/22 09:55:48;;;;;;;4.33;2.60;;;-17.30;99.90;;;;;;5032111;28;20201;-77
2022/10/22 09:58:13;;;;;;;8.37;2.23;;;-22.90;99.90;;;;;;5032956;28;20251;-75
2022/10/22 10:00:42;;;;;;;8.50;2.40;;;-26.10;99.90;;;;;;5037527;28;20236;-78
2022/10/22 10:03:20;;;;;;;4.13;1.93;;;-25.30;99.90;;;;;;5036980;28;20263;-77
2022/10/22 10:05:50;;;;;;;15.57;2.17;;;-40.00;99.90;;;;;;5018207;28;20227;-76
2022/10/22 10:08:21;;;;;;;7.20;3.23;;;-40.00;99.90;;;;;;5025982;28;20220;-77
2022/10/22 10:11:09;;;;;;;9.07;1.53;;;-32.40;99.90;;;;;;5027785;28;20272;-70
2022/10/22 10:13:45;;;;;;;6.33;1.70;;;-32.40;99.90;;;;;;5030010;28;20492;-71
2022/10/22 10:16:30;;;;;;;4.63;1.47;;;-21.40;99.90;;;;;;5036504;28;20184;-71
2022/10/22 10:19:40;;;;;;;4.93;2.00;;;-22.10;99.90;;;;;;5048317;28;20221;-70
2022/10/22 10:22:24;;;;;;;7.50;2.13;;;-25.70;99.90;;;;;;5014509;28;20634;-71
2022/10/22 10:25:19;;;;;;;11.47;1.93;;;-21.30;99.90;;;;;;4996800;28;20178;-69
2022/10/22 10:27:59;;;;;;;8.70;1.77;;;-19.10;99.90;;;;;;5027322;28;20227;-77
2022/10/22 10:30:25;;;;;;;9.67;2.07;;;-27.10;99.90;;;;;;5025368;28;20192;-72
2022/10/22 10:33:09;;;;;;;5.90;1.80;;;-25.50;99.90;;;;;;5027871;28;20196;-74
2022/10/22 10:35:46;;;;;;;3.93;1.50;;;-28.40;99.90;;;;;;5032666;28;20599;-72
2022/10/22 10:38:37;;;;;;;7.37;2.23;;;-23.60;99.90;;;;;;5028833;28;20599;-75
2022/10/22 10:41:17;;;;;;;12.80;1.70;;;-20.40;99.90;;;;;;5051469;28;20603;-70
2022/10/22 10:44:09;;;;;;;6.33;2.10;;;-24.80;99.90;;;;;;5025909;28;20204;-70
2022/10/22 10:46:57;;;;;;;5.33;1.00;;;-31.50;99.90;;;;;;5040658;28;20181;-71
2022/10/22 10:49:25;;;;;;;9.03;2.67;;;-22.20;99.90;;;;;;5025971;28;20180;-74
2022/10/22 10:52:03;;;;;;;11.57;2.80;;;-28.70;99.90;;;;;;5034430;28;20189;-72
2022/10/22 10:54:44;;;;;;;6.70;1.30;;;-21.60;99.90;;;;;;5042744;28;20184;-72
2022/10/22 10:57:30;;;;;;;6.93;2.00;;;-20.40;99.90;;;;;;5020124;28;20169;-69
2022/10/22 11:00:05;;;;;;;6.03;1.60;;;-24.50;99.90;;;;;;5034111;28;20201;-76
2022/10/22 11:02:43;;;;;;;6.53;4.00;;;-22.60;99.90;;;;;;5034823;28;20223;-70
2022/10/22 11:05:27;;;;;;;9.40;1.97;;;-27.20;99.90;;;;;;5029590;28;20205;-76
2022/10/22 11:07:58;;;;;;;7.80;2.00;;;-31.50;99.90;;;;;;5027796;28;20177;-72
2022/10/22 11:10:40;;;;;;;9.80;3.13;;;-27.40;99.90;;;;;;5032845;28;20173;-73
2022/10/22 11:13:18;;;;;;;7.10;2.13;;;-40.00;99.90;;;;;;5032421;28;20195;-75
2022/10/22 11:15:59;;;;;;;6.80;2.73;;;-40.00;99.90;;;;;;5034824;28;20234;-68
2022/10/22 11:18:48;;;;;;;4.93;2.27;;;-40.00;99.90;;;;;;5033641;28;20183;-71
2022/10/22 11:21:47;;;;;;;8.40;2.20;;;-40.00;99.90;;;;;;5031680;28;20184;-75
2022/10/22 11:24:21;;;;;;;5.63;2.03;;;-40.00;99.90;;;;;;5024770;28;20196;-73
2022/10/22 11:27:02;;;;;;;5.73;2.47;;;-40.00;99.90;;;;;;5024168;28;20187;-67
2022/10/22 11:29:43;;;;;;;12.10;2.53;;;-40.00;99.90;;;;;;5024594;28;20192;-76
2022/10/22 11:32:19;;;;;;;5.70;1.23;;;-40.00;99.90;;;;;;5044964;28;20187;-75
2022/10/22 11:34:55;;;;;;;5.77;2.10;;;-40.00;99.90;;;;;;5035149;28;20188;-75
2022/10/22 11:37:23;;;;;;;3.93;1.57;;;-40.00;99.90;;;;;;5028564;28;20186;-71
2022/10/22 11:40:06;;;;;;;6.97;2.00;;;-40.00;99.90;;;;;;5050942;28;20266;-69
2022/10/22 11:42:34;;;;;;;2.67;1.03;;;-40.00;99.70;;;;;;5033580;28;20184;-74
2022/10/22 11:45:22;;;;;;;5.40;1.23;;;-40.00;98.50;;;;;;5021383;28;20191;-75
2022/10/22 11:48:06;;;;;;;3.27;1.83;;;-40.00;94.70;;;;;;5024349;28;20204;-78
2022/10/22 11:50:43;;;;;;;3.07;1.77;;;-40.00;96.80;;;;;;5026647;28;20188;-76
2022/10/22 11:53:12;;;;;;;2.50;1.03;;;-40.00;97.10;;;;;;5043088;28;20476;-74
2022/10/22 11:55:47;;;;;;;3.13;1.43;;;-40.00;98.00;;;;;;5021597;28;20497;-77
2022/10/22 11:58:30;;;;;;;4.87;2.00;;;-40.00;97.90;;;;;;5032691;28;20270;-76
2022/10/22 12:01:02;;;;;;;7.67;1.60;;;-40.00;99.90;;;;;;5031239;28;20224;-78
2022/10/22 12:03:27;;;;;;;2.37;1.50;;;-40.00;99.90;;;;;;5017324;28;21123;-77
2022/10/22 12:06:19;;;;;;;2.67;1.50;;;-40.00;98.50;;;;;;5026585;28;20173;-76
2022/10/22 12:08:48;;;;;;;6.93;1.20;;;-40.00;94.50;;;;;;5023872;28;20260;-75
2022/10/22 12:11:22;;;;;;;2.10;1.07;;;-40.00;91.60;;;;;;5027298;28;20176;-72
2022/10/22 12:14:01;;;;;;;3.63;1.40;;;-40.00;91.10;;;;;;5024105;28;20529;-74
2022/10/22 12:16:31;;;;;;;4.27;1.20;;;-40.00;91.80;;;;;;5044178;28;20613;-71
2022/10/22 12:19:21;;;;;;;3.80;2.10;;;-40.00;89.20;;;;;;5028723;28;20181;-76
2022/10/22 12:21:51;;;;;;;6.57;2.23;;;-40.00;85.40;;;;;;5019793;28;20189;-76
2022/10/22 12:24:21;;;;;;;2.27;1.10;;;-40.00;84.40;;;;;;5023851;28;20219;-75
2022/10/22 12:26:51;;;;;;;3.10;1.20;;;-40.00;86.90;;;;;;5028356;28;20177;-74
2022/10/22 12:29:19;;;;;;;7.13;2.23;;;-40.00;89.40;;;;;;5031318;28;20193;-77
2022/10/22 12:31:46;;;;;;;3.00;0.90;;;-40.00;91.20;;;;;;5033839;28;20215;-74
2022/10/22 12:34:17;;;;;;;3.70;1.63;;;-40.00;93.10;;;;;;5026469;28;20364;-74
2022/10/22 12:36:45;;;;;;;5.70;1.40;;;-40.00;92.10;;;;;;5026902;28;20191;-76
2022/10/22 12:39:16;;;;;;;2.70;1.20;;;-40.00;90.40;;;;;;5033758;28;20352;-70
2022/10/22 12:41:43;;;;;;;3.60;1.57;;;-40.00;83.90;;;;;;5020299;28;20205;-74
2022/10/22 12:44:15;;;;;;;6.87;1.50;;;-40.00;77.70;;;;;;5034478;28;20176;-69
2022/10/22 12:46:43;;;;;;;2.27;1.30;;;-40.00;73.90;;;;;;5037918;28;20208;-72
2022/10/22 12:49:20;;;;;;;4.37;1.03;;;-40.00;73.10;;;;;;5037853;28;20185;-75
2022/10/22 12:51:47;;;;;;;3.97;1.20;;;-40.00;72.30;;;;;;5029301;28;20195;-74
2022/10/22 12:54:26;;;;;;;4.50;1.87;;;-40.00;69.50;;;;;;5038341;28;20209;-76